Time;durP1;ratioP1;P1;durP2;ratioP2;P2;SDS_P1;SDS_P2;PMS_P1;PMS_P2;Temp;Humidity;BMP_temperature;BMP_pressure;BME280_temperature;BME280_humidity;BME280_pressure;Samples;Min_cycle;Max_cycle;Signal;HPM_P1;HPM_P2
2024/01/15 00:00:20;;;;;;;10.48;7.80;;;2.50;99.90;;;;;;6144259;23;20208;-83
2024/01/15 00:02:47;;;;;;;10.48;8.27;;;2.40;99.90;;;;;;6144069;23;20184;-84
2024/01/15 00:05:14;;;;;;;10.65;8.25;;;2.30;99.90;;;;;;6141620;23;20188;-83
2024/01/15 00:07:41;;;;;;;12.55;8.20;;;2.30;1.00;;;;;;6136864;23;20556;-83
2024/01/15 00:10:08;;;;;;;11.20;8.57;;;2.30;1.00;;;;;;6134913;23;20205;-83
2024/01/15 00:12:35;;;;;;;17.38;10.00;;;2.20;1.00;;;;;;6132921;23;20237;-83
2024/01/15 00:15:04;;;;;;;10.18;8.13;;;2.10;1.00;;;;;;6133118;23;20244;-83
2024/01/15 00:17:32;;;;;;;13.45;10.00;;;2.10;1.00;;;;;;6133513;23;20181;-82
2024/01/15 00:19:59;;;;;;;11.10;9.02;;;2.20;1.00;;;;;;6133892;23;20212;-83
2024/01/15 00:22:28;;;;;;;14.30;8.82;;;2.20;1.00;;;;;;6134154;23;20208;-83
2024/01/15 00:24:55;;;;;;;12.90;9.95;;;2.10;1.00;;;;;;6134871;23;20551;-84
2024/01/15 00:27:23;;;;;;;15.98;10.00;;;2.10;1.00;;;;;;6132304;23;20188;-83
2024/01/15 00:29:51;;;;;;;11.63;7.72;;;2.10;1.00;;;;;;6132543;23;20216;-83
2024/01/15 00:32:19;;;;;;;12.50;8.95;;;2.10;1.00;;;;;;6132810;23;20660;-83
2024/01/15 00:34:47;;;;;;;11.75;9.75;;;2.10;1.00;;;;;;6133672;23;20190;-83
2024/01/15 00:37:14;;;;;;;11.70;9.38;;;2.20;1.00;;;;;;6150976;23;20180;-83
2024/01/15 00:39:41;;;;;;;13.80;10.02;;;2.20;1.00;;;;;;6147834;23;20292;-83
2024/01/15 00:42:08;;;;;;;12.57;8.77;;;2.20;1.00;;;;;;6149876;23;20232;-83
2024/01/15 00:44:33;;;;;;;11.73;9.23;;;2.20;1.00;;;;;;6135227;23;20182;-83
2024/01/15 00:47:01;;;;;;;10.43;7.80;;;2.20;1.00;;;;;;6133178;23;20263;-84
2024/01/15 00:49:28;;;;;;;12.82;9.23;;;2.20;1.00;;;;;;6132512;23;20516;-83
2024/01/15 00:51:56;;;;;;;12.25;8.95;;;2.20;1.00;;;;;;6132569;23;20260;-84
2024/01/15 00:54:23;;;;;;;13.00;8.82;;;2.20;1.00;;;;;;6132816;23;20181;-84
2024/01/15 00:56:50;;;;;;;10.68;8.02;;;2.20;1.00;;;;;;6132687;23;20188;-83
2024/01/15 00:59:17;;;;;;;13.40;8.88;;;2.20;1.00;;;;;;6135283;23;20177;-84
2024/01/15 01:01:45;;;;;;;12.68;9.40;;;2.20;99.90;;;;;;6134029;23;20197;-84
2024/01/15 01:04:14;;;;;;;11.27;7.88;;;2.20;99.90;;;;;;6139824;23;20208;-83
2024/01/15 01:06:41;;;;;;;10.85;8.13;;;2.20;99.90;;;;;;6151365;23;20169;-83
2024/01/15 01:09:09;;;;;;;13.65;9.60;;;2.30;99.90;;;;;;6140846;23;20260;-83
2024/01/15 01:11:36;;;;;;;16.20;9.00;;;2.20;99.90;;;;;;6133209;23;20216;-83
2024/01/15 01:14:03;;;;;;;14.00;8.85;;;2.20;99.90;;;;;;6133391;23;20276;-83
2024/01/15 01:16:30;;;;;;;10.05;8.25;;;2.10;1.00;;;;;;6134439;23;20619;-83
2024/01/15 01:18:57;;;;;;;12.93;8.38;;;2.10;1.00;;;;;;6133890;23;20177;-83
2024/01/15 01:21:24;;;;;;;12.35;8.95;;;2.10;1.00;;;;;;6132905;23;20276;-83
2024/01/15 01:23:51;;;;;;;11.15;7.80;;;2.10;1.00;;;;;;6133486;23;20568;-82
2024/01/15 01:26:19;;;;;;;11.00;8.60;;;2.10;1.00;;;;;;6133644;23;20181;-83
2024/01/15 01:28:46;;;;;;;14.65;9.43;;;2.00;1.00;;;;;;6131964;23;20200;-83
2024/01/15 01:31:13;;;;;;;9.55;8.15;;;2.10;1.00;;;;;;6131314;23;20200;-83
2024/01/15 01:33:40;;;;;;;10.68;8.68;;;2.00;1.00;;;;;;6150403;23;20189;-81
2024/01/15 01:36:09;;;;;;;13.35;8.68;;;2.00;1.00;;;;;;6155278;23;20185;-82
2024/01/15 01:38:36;;;;;;;11.73;8.65;;;2.00;1.00;;;;;;6151241;23;20196;-83
2024/01/15 01:41:03;;;;;;;13.50;8.75;;;2.00;1.00;;;;;;6150289;23;20205;-83
2024/01/15 01:43:31;;;;;;;12.70;8.55;;;2.00;1.00;;;;;;6140724;23;20211;-85
2024/01/15 01:45:59;;;;;;;10.95;8.13;;;2.00;1.00;;;;;;6142671;23;20181;-84
2024/01/15 01:48:26;;;;;;;14.70;8.02;;;1.80;1.00;;;;;;6141319;23;20176;-84
2024/01/15 01:50:53;;;;;;;16.00;9.32;;;1.70;1.00;;;;;;6142178;23;20205;-83
2024/01/15 01:53:20;;;;;;;17.50;9.57;;;1.70;1.00;;;;;;6142415;23;20261;-83
2024/01/15 01:55:48;;;;;;;14.15;10.02;;;1.70;1.00;;;;;;6141097;23;20644;-84
2024/01/15 01:58:16;;;;;;;12.25;9.13;;;1.60;11.10;;;;;;6133489;23;20186;-83
2024/01/15 02:00:44;;;;;;;14.10;8.82;;;1.70;33.60;;;;;;6133526;23;20205;-83
2024/01/15 02:03:11;;;;;;;14.82;8.77;;;1.70;29.00;;;;;;6133723;23;20704;-83
2024/01/15 02:05:41;;;;;;;13.00;9.77;;;1.70;9.60;;;;;;6131452;23;20213;-83
2024/01/15 02:08:07;;;;;;;12.00;8.85;;;1.70;1.00;;;;;;6131632;23;20181;-83
2024/01/15 02:10:34;;;;;;;11.65;8.75;;;1.70;1.00;;;;;;6135953;23;20258;-84
2024/01/15 02:13:01;;;;;;;11.82;9.23;;;1.70;1.00;;;;;;6142918;23;20248;-84
2024/01/15 02:15:29;;;;;;;12.60;9.43;;;1.70;1.00;;;;;;6141074;23;20177;-83
2024/01/15 02:18:03;;;;;;;14.43;9.38;;;1.70;1.00;;;;;;6133448;23;20232;-84
2024/01/15 02:20:30;;;;;;;15.10;10.18;;;1.70;1.00;;;;;;6133412;23;20536;-83
2024/01/15 02:23:09;;;;;;;12.45;7.60;;;1.70;1.00;;;;;;6136786;23;20184;-84
2024/01/15 02:25:37;;;;;;;11.63;7.60;;;1.70;1.00;;;;;;6147007;23;20172;-83
2024/01/15 02:28:05;;;;;;;14.27;8.35;;;1.70;1.00;;;;;;6139789;23;20181;-83
2024/01/15 02:30:32;;;;;;;13.85;8.27;;;1.70;1.00;;;;;;6139738;23;20208;-83
2024/01/15 02:32:59;;;;;;;14.63;8.75;;;1.70;1.00;;;;;;6140092;23;20208;-84
2024/01/15 02:35:26;;;;;;;13.18;9.07;;;1.70;1.00;;;;;;6134437;23;20259;-83
2024/01/15 02:37:53;;;;;;;10.55;8.45;;;1.70;1.00;;;;;;6134197;23;20240;-83
2024/01/15 02:40:21;;;;;;;10.63;8.23;;;1.70;1.00;;;;;;6134065;23;20323;-84
2024/01/15 02:42:48;;;;;;;10.30;7.80;;;1.70;1.00;;;;;;6132719;23;20212;-83
2024/01/15 02:45:15;;;;;;;13.75;7.72;;;1.70;1.00;;;;;;6133641;23;20181;-84
2024/01/15 02:47:42;;;;;;;9.38;7.05;;;1.70;99.90;;;;;;6132546;23;20188;-84
2024/01/15 02:50:09;;;;;;;10.75;6.85;;;1.70;99.90;;;;;;6132441;23;20201;-84
2024/01/15 02:52:36;;;;;;;10.57;7.50;;;1.70;99.90;;;;;;6148756;23;20207;-89
2024/01/15 02:55:03;;;;;;;10.88;7.20;;;1.80;99.90;;;;;;6154394;23;20222;-89
2024/01/15 02:57:32;;;;;;;9.57;6.95;;;1.70;99.90;;;;;;6151962;23;20166;-90
2024/01/15 02:59:59;;;;;;;11.60;7.13;;;1.80;99.90;;;;;;6134750;23;20180;-91
2024/01/15 03:02:27;;;;;;;8.30;6.63;;;1.80;99.90;;;;;;6132823;23;20204;-90
2024/01/15 03:04:56;;;;;;;10.52;7.82;;;1.90;99.90;;;;;;6133464;23;20181;-89
2024/01/15 03:07:29;;;;;;;10.05;7.15;;;1.80;99.90;;;;;;6138134;23;20192;-89
2024/01/15 03:09:56;;;;;;;8.70;6.80;;;1.80;99.90;;;;;;6134948;23;20169;-89
2024/01/15 03:12:23;;;;;;;8.10;7.03;;;1.80;99.90;;;;;;6140359;23;20205;-89
2024/01/15 03:14:59;;;;;;;8.65;6.80;;;1.80;99.90;;;;;;6135690;23;20185;-89
2024/01/15 03:17:31;;;;;;;11.55;7.38;;;1.90;99.90;;;;;;6148564;23;20204;-90
2024/01/15 03:19:58;;;;;;;9.85;6.72;;;1.80;99.90;;;;;;6135252;23;20165;-89
2024/01/15 03:22:25;;;;;;;8.50;7.15;;;1.80;99.90;;;;;;6131962;23;20192;-89
2024/01/15 03:24:54;;;;;;;8.73;6.90;;;2.10;99.90;;;;;;6131369;23;20173;-89
2024/01/15 03:27:21;;;;;;;10.65;6.90;;;1.90;99.90;;;;;;6131774;23;20230;-89
2024/01/15 03:29:48;;;;;;;12.57;7.35;;;1.90;99.90;;;;;;6131602;23;20177;-89
2024/01/15 03:32:20;;;;;;;9.27;7.28;;;1.90;99.90;;;;;;6132356;23;20715;-89
2024/01/15 03:34:52;;;;;;;11.05;7.13;;;1.80;99.90;;;;;;6131957;23;20169;-89
2024/01/15 03:37:19;;;;;;;10.57;5.93;;;2.40;99.90;;;;;;6133699;23;20169;-89
2024/01/15 03:39:51;;;;;;;12.55;7.07;;;1.90;99.90;;;;;;6131947;23;20616;-89
2024/01/15 03:42:22;;;;;;;8.90;5.95;;;1.90;99.90;;;;;;6132133;23;20221;-89
2024/01/15 03:44:49;;;;;;;10.95;7.10;;;1.90;99.90;;;;;;6143754;23;20161;-90
2024/01/15 03:47:18;;;;;;;15.10;6.68;;;2.30;96.70;;;;;;6130863;23;20228;-90
2024/01/15 03:49:44;;;;;;;10.98;6.97;;;2.20;36.80;;;;;;6130963;23;20498;-89
2024/01/15 03:52:14;;;;;;;8.55;5.45;;;1.90;43.20;;;;;;6131946;23;20504;-90
2024/01/15 03:54:41;;;;;;;8.00;5.93;;;1.90;36.30;;;;;;6139891;23;20181;-91
2024/01/15 03:57:09;;;;;;;9.25;5.93;;;2.50;5.10;;;;;;6143545;23;20177;-90
2024/01/15 03:59:40;;;;;;;9.55;5.50;;;2.00;1.00;;;;;;6137528;23;20176;-90
2024/01/15 04:02:07;;;;;;;8.43;5.60;;;2.00;1.00;;;;;;6132765;23;20212;-90
2024/01/15 04:04:37;;;;;;;11.93;6.72;;;2.00;22.40;;;;;;6138607;23;20197;-90
2024/01/15 04:07:04;;;;;;;5.68;5.00;;;2.00;1.00;;;;;;6153867;23;20160;-89
2024/01/15 04:09:41;;;;;;;10.02;6.07;;;2.10;1.00;;;;;;6153026;23;20153;-91
2024/01/15 04:12:17;;;;;;;7.60;5.32;;;2.10;1.00;;;;;;6134289;23;20197;-91
2024/01/15 04:14:48;;;;;;;6.45;4.93;;;2.00;1.00;;;;;;6134270;23;20180;-91
2024/01/15 04:17:15;;;;;;;5.90;4.95;;;2.00;1.00;;;;;;6133965;23;20252;-90
2024/01/15 04:19:48;;;;;;;5.13;4.38;;;1.90;1.00;;;;;;6133396;23;20183;-90
2024/01/15 04:22:15;;;;;;;14.25;6.18;;;2.00;1.00;;;;;;6133019;23;20197;-89
2024/01/15 04:24:42;;;;;;;5.32;4.47;;;2.00;1.00;;;;;;6132561;23;20177;-90
2024/01/15 04:27:09;;;;;;;11.70;4.70;;;2.00;1.00;;;;;;6130976;23;20177;-90
2024/01/15 04:29:39;;;;;;;8.95;5.40;;;2.00;1.00;;;;;;6132333;23;20176;-89
2024/01/15 04:32:06;;;;;;;4.90;4.28;;;2.00;1.00;;;;;;6138633;23;20185;-88
2024/01/15 04:34:34;;;;;;;6.85;5.55;;;1.90;1.00;;;;;;6150302;23;20176;-90
2024/01/15 04:37:03;;;;;;;8.88;5.20;;;2.00;1.00;;;;;;6136041;23;20173;-90
2024/01/15 04:39:30;;;;;;;9.50;4.50;;;2.00;1.00;;;;;;6139692;23;20185;-90
2024/01/15 04:41:59;;;;;;;6.47;4.72;;;2.00;1.00;;;;;;6152097;23;20196;-89
2024/01/15 04:44:26;;;;;;;9.32;4.03;;;2.10;1.00;;;;;;6154564;23;20184;-89
2024/01/15 04:46:57;;;;;;;8.40;4.28;;;2.10;1.00;;;;;;6155297;23;20184;-89
2024/01/15 04:49:30;;;;;;;5.28;4.43;;;2.10;1.00;;;;;;6155217;23;20149;-90
2024/01/15 04:52:00;;;;;;;7.90;3.50;;;2.20;1.00;;;;;;6145849;23;20205;-89
2024/01/15 04:54:31;;;;;;;8.77;3.80;;;2.10;1.00;;;;;;6137399;23;20204;-92
2024/01/15 04:57:00;;;;;;;6.68;4.10;;;2.10;99.90;;;;;;6139051;23;20169;-90
2024/01/15 04:59:34;;;;;;;6.68;4.05;;;2.70;1.00;;;;;;6138012;23;20248;-91
2024/01/15 05:02:18;;;;;;;7.70;3.60;;;2.10;99.90;;;;;;6137432;23;20240;-91
2024/01/15 05:04:56;;;;;;;4.95;3.03;;;2.10;99.90;;;;;;6136246;23;20169;-91
2024/01/15 05:07:34;;;;;;;6.70;4.00;;;2.10;99.90;;;;;;6136438;23;20525;-91
2024/01/15 05:10:08;;;;;;;4.50;3.55;;;2.10;99.90;;;;;;6136115;23;20176;-91
2024/01/15 05:12:54;;;;;;;5.47;3.15;;;2.10;99.90;;;;;;6135025;23;20656;-91
2024/01/15 05:15:37;;;;;;;5.75;3.80;;;2.20;99.90;;;;;;6135014;23;20492;-91
2024/01/15 05:18:15;;;;;;;5.20;3.42;;;2.20;99.90;;;;;;6135138;23;20196;-91
2024/01/15 05:23:33;;;;;;;5.60;3.35;;;2.20;1.00;;;;;;6144159;23;20223;-90
2024/01/15 05:26:05;;;;;;;7.40;3.33;;;2.20;1.00;;;;;;6135152;23;20185;-89
2024/01/15 05:28:36;;;;;;;10.32;3.40;;;2.10;1.00;;;;;;6135147;23;20260;-89
2024/01/15 05:31:05;;;;;;;5.00;3.40;;;2.10;1.00;;;;;;6135216;23;20244;-90
2024/01/15 05:33:36;;;;;;;7.05;2.85;;;2.10;1.00;;;;;;6147798;23;20200;-89
2024/01/15 05:36:09;;;;;;;9.43;4.07;;;2.20;1.00;;;;;;6155559;23;20169;-90
2024/01/15 05:38:36;;;;;;;4.00;3.13;;;2.10;1.00;;;;;;6143718;23;20173;-88
2024/01/15 05:41:09;;;;;;;3.78;3.22;;;2.10;1.00;;;;;;6133711;23;20520;-89
2024/01/15 05:43:41;;;;;;;3.53;2.90;;;2.60;1.00;;;;;;6136108;23;20212;-90
2024/01/15 05:46:11;;;;;;;5.03;4.07;;;2.20;1.00;;;;;;6133121;23;20158;-90
2024/01/15 05:48:55;;;;;;;;;;;;;;;;;;;;;
2024/01/15 05:52:09;;;;;;;5.55;3.40;;;2.30;1.00;;;;;;6135892;23;20193;-91
2024/01/15 05:54:50;;;;;;;5.93;2.97;;;2.30;1.00;;;;;;6127198;23;20205;-91
2024/01/15 06:00:23;;;;;;;5.38;3.30;;;2.30;1.00;;;;;;6129768;23;20180;-91
2024/01/15 06:02:53;;;;;;;4.22;3.83;;;2.20;1.00;;;;;;6138624;23;20192;-91
2024/01/15 06:05:30;;;;;;;10.20;4.47;;;2.10;1.00;;;;;;6144024;23;20169;-91
2024/01/15 06:07:58;;;;;;;4.88;2.75;;;2.10;55.90;;;;;;6154158;23;20213;-91
2024/01/15 06:10:30;;;;;;;6.15;3.45;;;2.10;23.40;;;;;;6154876;23;20161;-91
2024/01/15 06:13:00;;;;;;;7.53;3.30;;;2.00;83.50;;;;;;6153356;23;20185;-89
2024/01/15 06:15:27;;;;;;;4.30;3.25;;;2.00;36.80;;;;;;6155097;23;20153;-89
2024/01/15 06:29:53;;;;;;;7.63;2.70;;;2.10;1.00;;;;;;6196510;23;20207;-91
2024/01/15 06:35:57;;;;;;;14.32;3.25;;;2.10;1.00;;;;;;6139763;23;20173;-92
2024/01/15 10:05:57;;;;;;;5.22;2.20;;;2.90;99.90;;;;;;6064585;23;20205;-91
2024/01/15 17:27:57;;;;;;;4.20;3.60;;;1.50;1.00;;;;;;6140172;23;20191;-89
2024/01/15 17:31:20;;;;;;;5.10;4.18;;;1.50;1.00;;;;;;6127267;23;20177;-89
2024/01/15 17:33:52;;;;;;;4.50;3.83;;;1.50;1.00;;;;;;6104692;23;20190;-90
2024/01/15 17:39:54;;;;;;;7.43;3.65;;;1.50;1.00;;;;;;6115126;23;20241;-89
2024/01/15 17:42:31;;;;;;;8.20;3.90;;;1.50;1.00;;;;;;6117683;23;20276;-89
2024/01/15 17:45:16;;;;;;;4.40;2.70;;;1.60;1.00;;;;;;6117253;23;20153;-89
2024/01/15 17:50:46;;;;;;;4.28;3.88;;;1.50;1.00;;;;;;6115056;23;20220;-88
2024/01/15 17:54:03;;;;;;;8.25;3.95;;;1.60;1.00;;;;;;6121736;23;20165;-88
2024/01/15 17:56:56;;;;;;;5.93;4.53;;;1.50;1.00;;;;;;6125411;23;20201;-89
2024/01/15 18:03:22;;;;;;;3.97;3.60;;;1.60;1.00;;;;;;6109104;23;20193;-89
2024/01/15 18:16:22;;;;;;;5.63;4.40;;;1.70;1.00;;;;;;5966337;24;20574;-89
2024/01/15 18:19:18;;;;;;;4.47;3.72;;;1.60;1.00;;;;;;5963931;24;20220;-88
2024/01/15 18:22:25;;;;;;;6.47;3.75;;;1.70;1.00;;;;;;5965694;24;20200;-89
2024/01/15 18:25:18;;;;;;;4.70;3.05;;;1.70;1.00;;;;;;5984092;23;20196;-87
2024/01/15 18:27:54;;;;;;;4.75;4.35;;;1.70;1.00;;;;;;6105511;23;20181;-87
2024/01/15 18:30:24;;;;;;;8.70;4.53;;;1.80;1.00;;;;;;6125014;23;20154;-88
2024/01/15 18:36:08;;;;;;;6.53;4.95;;;2.00;1.00;;;;;;6100626;23;20174;-87
2024/01/15 18:39:12;;;;;;;5.82;4.53;;;1.70;99.90;;;;;;6110156;23;20162;-90
2024/01/15 18:42:29;;;;;;;5.03;3.65;;;1.80;1.00;;;;;;6116996;23;20185;-87
2024/01/15 18:48:37;;;;;;;6.78;5.50;;;1.90;99.90;;;;;;6105687;23;20578;-88
2024/01/15 18:51:51;;;;;;;11.43;4.50;;;1.80;99.90;;;;;;6117872;23;20202;-88
2024/01/15 18:55:13;;;;;;;8.00;4.40;;;1.70;99.90;;;;;;6121078;23;20198;-88
2024/01/15 19:02:26;;;;;;;4.80;3.72;;;1.80;99.90;;;;;;6092691;23;20202;-88
2024/01/15 19:14:58;;;;;;;6.35;2.78;;;1.40;1.00;;;;;;6039278;23;20233;-86
2024/01/15 19:35:24;;;;;;;5.75;2.75;;;1.20;99.90;;;;;;5977118;23;20235;-89
2024/01/15 19:37:56;;;;;;;4.80;2.95;;;1.10;1.00;;;;;;6035213;23;20653;-90
2024/01/15 19:40:26;;;;;;;2.75;2.55;;;1.00;99.90;;;;;;6119078;23;20232;-89
2024/01/15 19:43:03;;;;;;;2.30;2.10;;;1.00;99.90;;;;;;6140219;23;20208;-90
2024/01/15 19:45:35;;;;;;;2.95;2.30;;;1.10;1.00;;;;;;6143972;23;20171;-89
2024/01/15 19:48:06;;;;;;;5.65;3.13;;;1.10;1.00;;;;;;6153183;23;20165;-89
2024/01/15 19:50:38;;;;;;;4.05;2.35;;;1.20;1.00;;;;;;6153878;23;20201;-88
2024/01/15 19:55:52;;;;;;;6.63;2.95;;;1.00;99.90;;;;;;6148242;23;20197;-88
2024/01/15 19:58:20;;;;;;;8.43;3.97;;;1.10;1.00;;;;;;6143508;23;20169;-88
2024/01/15 20:00:52;;;;;;;8.38;5.60;;;1.10;1.00;;;;;;6146667;23;20192;-89
2024/01/15 20:03:39;;;;;;;5.67;2.20;;;1.10;1.00;;;;;;6150423;23;20394;-89
2024/01/15 20:06:11;;;;;;;3.00;2.70;;;1.00;99.90;;;;;;6146191;23;20413;-88
2024/01/15 20:40:11;;;;;;;5.20;2.78;;;0.70;99.90;;;;;;6114649;23;20219;-91
2024/01/15 21:06:13;;;;;;;2.83;2.15;;;0.90;1.00;;;;;;6152738;23;20216;-90
2024/01/15 21:27:40;;;;;;;;;;;;;;;;;;;;;
2024/01/15 21:34:05;;;;;;;5.80;2.30;;;0.70;99.90;;;;;;6099481;23;20186;-92
2024/01/15 21:36:40;;;;;;;4.53;2.85;;;0.70;99.90;;;;;;6114074;23;20177;-90
2024/01/15 21:42:24;;;;;;;;;;;;;;;;;;;;;
2024/01/15 21:59:45;;;;;;;3.50;2.63;;;0.80;99.90;;;;;;6137513;23;20216;-90
2024/01/15 22:02:45;;;;;;;4.32;2.15;;;0.80;99.90;;;;;;6145989;23;20193;-90
2024/01/15 22:05:29;;;;;;;;;;;;;;;;;;;;;
2024/01/15 22:14:44;;;;;;;4.55;2.22;;;0.60;99.90;;;;;;6143993;23;20203;-91
2024/01/15 22:17:43;;;;;;;3.80;2.20;;;0.50;99.90;;;;;;6145338;23;20177;-91
2024/01/15 22:25:44;;;;;;;3.92;2.65;;;0.60;99.90;;;;;;6212563;23;20242;-91
2024/01/15 22:28:21;;;;;;;4.45;3.15;;;0.50;99.90;;;;;;6212263;23;20164;-90
2024/01/15 22:31:22;;;;;;;3.47;2.55;;;0.50;99.90;;;;;;6212927;23;20168;-89
2024/01/15 22:44:22;;;;;;;2.53;1.77;;;0.60;99.90;;;;;;6211083;23;20175;-91
2024/01/15 22:50:13;;;;;;;3.13;2.83;;;0.60;99.90;;;;;;6211451;23;20219;-90
2024/01/15 22:52:52;;;;;;;3.22;2.33;;;0.60;99.90;;;;;;6203831;23;20250;-91
2024/01/15 22:55:31;;;;;;;2.40;2.00;;;0.60;99.90;;;;;;6205662;23;20243;-90
2024/01/15 22:58:10;;;;;;;3.70;2.67;;;0.70;99.90;;;;;;6211003;23;20168;-89
2024/01/15 23:01:01;;;;;;;4.70;2.30;;;0.40;25.00;;;;;;6206349;23;20187;-90
2024/01/15 23:03:39;;;;;;;4.40;2.50;;;0.90;99.90;;;;;;6206179;23;20167;-89
2024/01/15 23:06:26;;;;;;;3.40;2.45;;;0.60;99.90;;;;;;6213747;23;20171;-88
2024/01/15 23:09:04;;;;;;;5.10;2.70;;;0.40;99.90;;;;;;6213886;23;20482;-89
2024/01/15 23:11:42;;;;;;;3.70;2.72;;;0.20;99.90;;;;;;6209430;23;20222;-90
2024/01/15 23:14:14;;;;;;;2.67;1.90;;;0.10;99.90;;;;;;6204328;23;20176;-90
2024/01/15 23:16:50;;;;;;;4.60;3.22;;;0.90;99.90;;;;;;6201485;23;20222;-89
2024/01/15 23:19:22;;;;;;;3.63;3.20;;;0.10;99.90;;;;;;6202679;23;20179;-89
2024/01/15 23:22:05;;;;;;;5.80;2.33;;;0.10;99.90;;;;;;6202872;23;20198;-89
2024/01/15 23:24:37;;;;;;;2.60;2.40;;;0.20;99.90;;;;;;6203269;23;20168;-90
2024/01/15 23:27:15;;;;;;;5.00;3.00;;;0.40;99.90;;;;;;6202150;23;20179;-89
2024/01/15 23:29:49;;;;;;;3.13;2.90;;;0.30;99.90;;;;;;6203879;23;20559;-91
2024/01/15 23:32:26;;;;;;;4.30;2.85;;;0.30;99.90;;;;;;6209449;23;20565;-91
2024/01/15 23:35:17;;;;;;;3.03;2.78;;;0.20;99.90;;;;;;6199825;23;20211;-91
2024/01/15 23:37:51;;;;;;;3.00;2.03;;;0.20;99.90;;;;;;6200961;23;20206;-89
2024/01/15 23:40:24;;;;;;;2.53;2.35;;;0.60;99.90;;;;;;6199524;23;20239;-89
2024/01/15 23:43:08;;;;;;;;;;;;;;;;;;;;;
2024/01/15 23:49:04;;;;;;;7.05;2.13;;;0.20;99.90;;;;;;6194460;23;20183;-90
2024/01/15 23:51:55;;;;;;;2.28;2.08;;;0.30;99.90;;;;;;6199931;23;20175;-91
2024/01/15 23:54:49;;;;;;;4.70;2.53;;;0.30;68.50;;;;;;6199288;23;20179;-91
2024/01/15 23:57:36;;;;;;;7.15;3.35;;;0.50;99.90;;;;;;6195820;23;20203;-91
